Time;durP1;ratioP1;P1;durP2;ratioP2;P2;SDS_P1;SDS_P2;PMS_P1;PMS_P2;Temp;Humidity;BMP_temperature;BMP_pressure;BME280_temperature;BME280_humidity;BME280_pressure;Samples;Min_cycle;Max_cycle;Signal;HPM_P1;HPM_P2
2021/11/17 02:28:47;;;;;;;28.70;16.87;;;;;;;1.77;86.66;98027.69;6219711;28;20190;-67
2021/11/17 02:31:55;;;;;;;29.40;17.77;;;;;;;1.82;86.33;98024.91;6217976;28;20197;-66
2021/11/17 02:35:36;;;;;;;25.20;16.67;;;;;;;1.91;86.54;98023.66;6219743;28;20205;-66
2021/11/17 02:38:56;;;;;;;26.43;16.67;;;;;;;1.97;86.29;98026.91;6205727;28;20227;-66
2021/11/17 02:42:01;;;;;;;31.33;19.03;;;;;;;2.03;86.42;98018.81;6219263;28;20209;-65
2021/11/17 02:45:12;;;;;;;28.43;16.80;;;;;;;2.08;86.30;98013.44;6217047;28;20608;-66
2021/11/17 02:48:33;;;;;;;30.00;18.17;;;;;;;2.16;86.37;98016.56;6219120;28;20185;-66
2021/11/17 02:51:38;;;;;;;27.53;16.90;;;;;;;2.23;86.35;98018.84;6219218;28;20183;-66
2021/11/17 02:55:02;;;;;;;23.57;15.70;;;;;;;2.30;86.41;98023.78;6219166;28;20189;-66
2021/11/17 02:58:16;;;;;;;27.93;17.07;;;;;;;2.38;86.47;98024.34;6218250;28;20178;-68
2021/11/17 03:01:47;;;;;;;27.40;17.67;;;;;;;2.43;86.49;98025.84;6218614;28;20203;-66
2021/11/17 03:05:38;;;;;;;29.97;17.30;;;;;;;2.49;86.29;98029.94;6219366;28;20287;-66
2021/11/17 03:09:12;;;;;;;27.97;17.57;;;;;;;2.54;86.42;98031.44;6215509;28;20216;-66
2021/11/17 03:12:37;;;;;;;32.27;19.17;;;;;;;2.64;86.76;98031.03;6217833;28;20175;-66
2021/11/17 03:15:54;;;;;;;31.93;19.17;;;;;;;2.67;86.45;98029.16;6207796;28;20194;-66
2021/11/17 03:19:11;;;;;;;25.23;17.20;;;;;;;2.73;86.53;98028.88;6194652;28;20187;-66
2021/11/17 03:22:37;;;;;;;29.90;19.07;;;;;;;2.78;86.95;98031.31;6194950;28;20650;-66
2021/11/17 03:26:04;;;;;;;26.53;17.77;;;;;;;2.82;86.36;98028.47;6194251;28;20559;-66
2021/11/17 03:29:39;;;;;;;28.77;18.07;;;;;;;2.87;86.54;98034.34;6194479;28;20660;-66
2021/11/17 03:32:51;;;;;;;24.93;16.47;;;;;;;2.87;86.54;98041.31;6194532;28;20174;-66
2021/11/17 03:36:15;;;;;;;23.03;16.37;;;;;;;2.86;86.34;98035.25;6218696;28;20718;-66
2021/11/17 03:39:43;;;;;;;29.83;19.33;;;;;;;2.84;86.74;98028.41;6218094;28;20189;-66
2021/11/17 03:43:07;;;;;;;28.30;18.00;;;;;;;2.84;86.26;98038.84;6215591;28;20269;-69
2021/11/17 03:46:24;;;;;;;28.87;17.90;;;;;;;2.85;86.21;98045.75;6203965;28;20282;-66
2021/11/17 03:49:59;;;;;;;29.93;19.63;;;;;;;2.86;86.48;98050.91;6217348;28;20192;-66
2021/11/17 03:53:14;;;;;;;30.93;18.50;;;;;;;2.85;86.52;98046.59;6218688;28;20192;-67
2021/11/17 03:56:34;;;;;;;27.97;18.77;;;;;;;2.87;85.90;98041.31;6217600;28;20329;-66
2021/11/17 03:59:38;;;;;;;29.17;18.77;;;;;;;2.87;85.88;98039.56;6218509;28;20710;-66
2021/11/17 04:02:56;;;;;;;28.23;18.13;;;;;;;2.89;85.97;98050.78;6217909;28;20692;-66
2021/11/17 04:06:24;;;;;;;27.23;18.30;;;;;;;2.90;85.95;98044.63;6218627;28;20194;-67
2021/11/17 04:09:32;;;;;;;27.03;18.03;;;;;;;2.91;86.29;98042.88;6216474;28;20678;-67
2021/11/17 04:12:40;;;;;;;26.90;17.93;;;;;;;2.93;86.15;98041.91;6222934;28;20189;-66
2021/11/17 04:16:14;;;;;;;25.43;15.80;;;;;;;2.97;86.01;98035.66;6211893;28;20655;-66
2021/11/17 04:19:36;;;;;;;29.20;18.00;;;;;;;2.97;85.95;98046.06;6210659;28;20230;-66
2021/11/17 04:22:54;;;;;;;23.57;16.37;;;;;;;3.00;85.41;98049.44;6222065;28;20209;-66
2021/11/17 04:26:08;;;;;;;30.00;19.27;;;;;;;3.02;85.89;98052.81;6221597;28;20205;-66
2021/11/17 04:29:20;;;;;;;32.43;18.03;;;;;;;3.02;85.09;98058.88;6222853;28;20280;-66
2021/11/17 04:32:37;;;;;;;26.90;17.57;;;;;;;3.04;85.71;98059.69;6220699;28;20199;-66
2021/11/17 04:35:51;;;;;;;29.27;18.03;;;;;;;3.07;85.39;98061.31;6221222;28;20314;-66
2021/11/17 04:39:18;;;;;;;25.23;17.60;;;;;;;3.09;85.36;98057.72;6222145;28;20270;-67
2021/11/17 04:42:50;;;;;;;27.03;18.03;;;;;;;3.12;84.97;98061.94;6221918;28;20191;-66
2021/11/17 04:46:27;;;;;;;24.60;16.37;;;;;;;3.12;85.21;98065.38;6215326;28;20241;-66
2021/11/17 04:49:41;;;;;;;24.67;16.30;;;;;;;3.13;85.47;98071.44;6205079;28;20224;-66
2021/11/17 04:52:52;;;;;;;28.30;18.60;;;;;;;3.15;85.54;98067.03;6221326;28;20220;-66
2021/11/17 04:56:13;;;;;;;22.83;15.33;;;;;;;3.15;85.53;98060.06;6222155;28;20203;-66
2021/11/17 04:59:27;;;;;;;26.90;16.47;;;;;;;3.19;85.35;98074.66;6221881;28;20202;-67
2021/11/17 05:02:38;;;;;;;25.70;17.30;;;;;;;3.18;84.93;98072.97;6221156;28;20216;-66
2021/11/17 05:06:02;;;;;;;26.07;17.10;;;;;;;3.21;85.14;98072.81;6220488;28;20195;-66
2021/11/17 05:09:07;;;;;;;24.43;16.73;;;;;;;3.19;85.10;98068.59;6221544;28;20217;-66
2021/11/17 05:12:21;;;;;;;27.10;17.70;;;;;;;3.20;85.18;98067.66;6219913;28;20234;-66
2021/11/17 05:15:26;;;;;;;23.57;16.23;;;;;;;3.19;85.26;98065.97;6213078;28;20584;-66
2021/11/17 05:18:49;;;;;;;27.27;17.23;;;;;;;3.20;84.68;98065.03;6215752;28;20203;-65
2021/11/17 05:22:09;;;;;;;25.63;15.77;;;;;;;3.20;84.89;98067.66;6220419;28;20281;-67
2021/11/17 05:25:18;;;;;;;25.50;18.40;;;;;;;3.22;85.05;98068.44;6221458;28;20570;-66
2021/11/17 05:28:26;;;;;;;27.67;18.57;;;;;;;3.24;84.94;98077.03;6221474;28;20196;-66
2021/11/17 05:32:05;;;;;;;27.03;18.17;;;;;;;3.27;85.16;98076.91;6220710;28;20204;-67
2021/11/17 05:35:29;;;;;;;23.27;16.37;;;;;;;3.28;84.89;98079.47;6219557;28;20342;-66
2021/11/17 05:38:55;;;;;;;27.20;18.07;;;;;;;3.33;85.42;98090.53;6221086;28;20201;-67
2021/11/17 05:42:13;;;;;;;28.73;18.00;;;;;;;3.38;84.94;98084.25;6220478;28;20671;-66
2021/11/17 05:45:52;;;;;;;26.40;17.60;;;;;;;3.40;85.33;98088.47;6211970;28;20250;-66
2021/11/17 05:49:07;;;;;;;32.57;20.00;;;;;;;3.44;85.40;98094.41;6210567;28;20200;-66
2021/11/17 05:52:24;;;;;;;32.70;19.93;;;;;;;3.47;85.24;98095.13;6218717;28;20211;-66
2021/11/17 05:55:45;;;;;;;31.50;20.27;;;;;;;3.49;85.51;98095.06;6220638;28;20339;-67
2021/11/17 05:58:55;;;;;;;37.17;21.90;;;;;;;3.51;86.21;98096.66;6220402;28;20210;-67
2021/11/17 06:02:27;;;;;;;35.47;22.20;;;;;;;3.55;85.81;98106.06;6218833;28;20228;-65
2021/11/17 06:05:29;;;;;;;44.20;24.83;;;;;;;3.56;86.03;98099.94;6213050;28;20251;-66
2021/11/17 06:08:30;;;;;;;40.90;24.07;;;;;;;3.58;85.63;98102.47;6218860;28;20195;-66
2021/11/17 06:11:46;;;;;;;44.67;24.47;;;;;;;3.61;86.10;98108.38;6219814;28;20203;-67
2021/11/17 06:14:50;;;;;;;43.20;24.57;;;;;;;3.61;86.46;98108.38;6215707;28;20285;-66
2021/11/17 06:17:55;;;;;;;38.63;23.20;;;;;;;3.64;86.07;98108.25;6220273;28;20221;-66
2021/11/17 06:21:00;;;;;;;40.67;24.10;;;;;;;3.67;86.22;98110.72;6219493;28;20214;-66
2021/11/17 06:24:05;;;;;;;43.83;24.33;;;;;;;3.72;86.75;98115.72;6219852;28;20706;-66
2021/11/17 06:27:13;;;;;;;43.53;24.13;;;;;;;3.75;86.69;98119.97;6220027;28;20205;-67
2021/11/17 06:30:18;;;;;;;42.10;24.17;;;;;;;3.76;86.81;98117.28;6218990;28;20548;-66
2021/11/17 06:33:20;;;;;;;46.23;26.77;;;;;;;3.78;86.69;98125.91;6219239;28;20202;-66
2021/11/17 06:36:22;;;;;;;39.27;23.33;;;;;;;3.80;87.12;98123.19;6219522;28;20192;-66
2021/11/17 06:39:25;;;;;;;38.37;21.50;;;;;;;3.82;86.92;98124.81;6219832;28;20202;-67
2021/11/17 06:42:34;;;;;;;35.60;20.93;;;;;;;3.84;86.49;98132.59;6219097;28;20220;-67
2021/11/17 06:45:45;;;;;;;35.23;20.03;;;;;;;3.86;86.65;98129.00;6208997;28;20315;-66
2021/11/17 06:48:47;;;;;;;37.73;21.47;;;;;;;3.90;87.13;98137.50;6195440;28;20276;-66
2021/11/17 06:51:50;;;;;;;35.97;20.50;;;;;;;3.92;87.51;98138.28;6214463;28;20207;-66
2021/11/17 06:54:52;;;;;;;35.80;19.40;;;;;;;3.95;87.28;98132.94;6219516;28;20219;-66
2021/11/17 06:57:55;;;;;;;39.27;22.77;;;;;;;3.97;86.98;98138.94;6219434;28;20203;-68
2021/11/17 07:01:01;;;;;;;38.67;22.83;;;;;;;3.98;87.39;98140.63;6218888;28;20204;-66
2021/11/17 07:04:04;;;;;;;36.30;22.10;;;;;;;4.00;86.53;98131.78;6218699;28;20221;-66
2021/11/17 07:07:08;;;;;;;43.97;25.23;;;;;;;4.01;86.60;98132.66;6218637;28;20208;-70
2021/11/17 07:10:12;;;;;;;38.80;23.40;;;;;;;3.99;87.27;98134.50;6201527;28;20790;-67
2021/11/17 07:13:14;;;;;;;37.20;22.07;;;;;;;4.00;87.29;98149.22;6218255;28;20680;-66
2021/11/17 07:16:17;;;;;;;37.67;22.83;;;;;;;4.02;87.15;98150.84;6203216;28;20206;-66
2021/11/17 07:19:24;;;;;;;37.83;21.80;;;;;;;4.02;86.95;98150.84;6214927;28;20232;-66
2021/11/17 07:22:26;;;;;;;39.00;21.23;;;;;;;4.01;87.40;98158.75;6216782;28;20756;-67
2021/11/17 07:25:28;;;;;;;37.87;23.10;;;;;;;4.00;87.08;98157.91;6218359;28;20216;-66
2021/11/17 07:28:30;;;;;;;37.73;21.97;;;;;;;3.98;87.37;98157.16;6217098;28;20716;-67
2021/11/17 07:31:32;;;;;;;35.07;20.80;;;;;;;3.99;86.97;98152.78;6217795;28;20192;-67
2021/11/17 07:34:34;;;;;;;35.67;20.03;;;;;;;4.00;87.23;98152.69;6212091;28;20643;-66
2021/11/17 07:37:37;;;;;;;31.63;19.37;;;;;;;4.03;86.96;98156.94;6218320;28;20204;-66
2021/11/17 07:40:41;;;;;;;33.20;20.30;;;;;;;4.05;86.77;98173.38;6218333;28;20506;-66
2021/11/17 07:43:43;;;;;;;32.43;19.43;;;;;;;4.06;86.71;98170.69;6221380;28;20219;-67
2021/11/17 07:46:47;;;;;;;37.33;22.63;;;;;;;4.08;86.71;98170.63;6186450;28;20246;-69
2021/11/17 07:49:49;;;;;;;35.57;20.93;;;;;;;4.07;87.29;98175.00;6214750;28;20193;-66
2021/11/17 07:52:51;;;;;;;34.03;19.80;;;;;;;4.10;86.94;98181.81;6222603;28;20200;-68
2021/11/17 07:55:56;;;;;;;34.03;20.83;;;;;;;4.14;86.80;98175.56;6221771;28;20604;-68
2021/11/17 07:58:58;;;;;;;35.77;21.23;;;;;;;4.16;86.60;98181.56;6222549;28;20257;-66
2021/11/17 08:02:07;;;;;;;36.00;21.43;;;;;;;4.21;86.49;98178.72;6222283;28;20241;-67
2021/11/17 08:05:11;;;;;;;36.00;20.70;;;;;;;4.25;86.74;98180.28;6222125;28;20219;-67
2021/11/17 08:08:13;;;;;;;31.20;18.73;;;;;;;4.27;87.36;98184.53;6221702;28;20570;-66
2021/11/17 08:11:21;;;;;;;33.63;20.43;;;;;;;4.31;86.48;98183.44;6222356;28;20201;-67
2021/11/17 08:14:23;;;;;;;27.47;18.03;;;;;;;4.34;87.41;98180.69;6220572;28;20220;-67
2021/11/17 08:17:25;;;;;;;38.93;22.90;;;;;;;4.36;87.22;98186.69;6215164;28;20286;-67
2021/11/17 08:20:27;;;;;;;30.87;18.83;;;;;;;4.40;86.74;98188.22;6220803;28;20203;-67
2021/11/17 08:23:29;;;;;;;33.53;20.13;;;;;;;4.45;86.88;98193.25;6221837;28;20330;-66
2021/11/17 08:26:32;;;;;;;31.83;19.07;;;;;;;4.48;87.25;98195.72;6221220;28;20263;-66
2021/11/17 08:29:35;;;;;;;32.60;20.07;;;;;;;4.51;86.55;98192.94;6222296;28;20191;-68
2021/11/17 08:32:40;;;;;;;30.97;18.83;;;;;;;4.56;86.81;98195.34;6222148;28;20219;-67
2021/11/17 08:35:43;;;;;;;31.73;18.97;;;;;;;4.60;87.21;98202.97;6221554;28;20565;-66
2021/11/17 08:38:50;;;;;;;34.33;18.97;;;;;;;4.67;86.43;98201.78;6222586;28;20524;-70
2021/11/17 08:41:52;;;;;;;31.73;19.27;;;;;;;4.73;85.83;98206.69;6221084;28;20193;-66
2021/11/17 08:44:55;;;;;;;30.50;18.97;;;;;;;4.75;86.50;98209.22;6215610;28;20229;-66
2021/11/17 08:47:58;;;;;;;29.70;18.03;;;;;;;4.78;85.65;98211.72;6209320;28;20207;-67
2021/11/17 08:51:04;;;;;;;31.17;18.67;;;;;;;4.80;86.67;98215.91;6221194;28;20215;-66
2021/11/17 08:54:06;;;;;;;32.53;18.47;;;;;;;4.83;85.56;98213.16;6219764;28;20200;-69
2021/11/17 08:57:08;;;;;;;35.90;21.63;;;;;;;4.85;85.92;98209.63;6221515;28;20196;-66
2021/11/17 09:00:12;;;;;;;31.43;18.47;;;;;;;4.88;85.75;98212.09;6220402;28;20219;-66
2021/11/17 09:03:21;;;;;;;29.27;18.03;;;;;;;4.90;86.47;98221.53;6221293;28;20261;-71
2021/11/17 09:06:24;;;;;;;25.50;14.57;;;;;;;4.93;86.26;98225.78;6221064;28;20189;-67
2021/11/17 09:09:26;;;;;;;22.53;13.07;;;;;;;4.94;86.25;98219.63;6221498;28;20207;-68
2021/11/17 09:12:28;;;;;;;18.67;11.17;;;;;;;4.91;85.48;98223.25;6220540;28;20258;-66
2021/11/17 09:15:33;;;;;;;14.37;9.13;;;;;;;4.89;85.73;98219.84;6211849;28;20189;-66
2021/11/17 09:18:38;;;;;;;15.90;9.40;;;;;;;4.91;85.60;98227.63;6206014;28;20197;-67
2021/11/17 09:21:43;;;;;;;10.73;7.53;;;;;;;4.93;85.21;98231.03;6220723;28;20200;-69
2021/11/17 09:24:45;;;;;;;11.50;7.30;;;;;;;4.94;85.57;98227.50;6221332;28;20286;-70
2021/11/17 09:27:48;;;;;;;13.03;8.33;;;;;;;4.96;85.53;98225.66;6220464;28;20692;-68
2021/11/17 09:30:51;;;;;;;14.03;7.87;;;;;;;4.98;84.87;98226.44;6219592;28;20672;-67
2021/11/17 09:33:54;;;;;;;10.20;7.40;;;;;;;5.01;85.02;98227.09;6220501;28;20661;-68
2021/11/17 09:36:56;;;;;;;12.53;8.03;;;;;;;5.06;84.64;98221.66;6220508;28;20199;-66
2021/11/17 09:40:01;;;;;;;10.17;7.00;;;;;;;5.09;84.79;98214.47;6220872;28;20204;-69
2021/11/17 09:43:04;;;;;;;10.10;7.00;;;;;;;5.14;84.62;98232.59;6218765;28;20589;-66
2021/11/17 09:46:07;;;;;;;9.40;6.33;;;;;;;5.17;84.56;98235.06;6215489;28;20315;-68
2021/11/17 09:49:19;;;;;;;9.90;6.30;;;;;;;5.24;83.77;98230.34;6220006;28;20216;-66
2021/11/17 09:52:33;;;;;;;10.87;6.70;;;;;;;5.28;83.29;98219.66;6220213;28;20184;-67
2021/11/17 09:55:46;;;;;;;8.83;6.43;;;;;;;5.35;83.17;98228.06;6220027;28;20193;-70
2021/11/17 09:58:54;;;;;;;11.03;7.03;;;;;;;5.38;83.42;98225.28;6220551;28;20181;-66
2021/11/17 10:02:01;;;;;;;9.03;6.33;;;;;;;5.41;82.98;98227.72;6218505;28;20685;-67
2021/11/17 10:05:15;;;;;;;7.93;5.90;;;;;;;5.46;83.53;98231.81;6218843;28;20283;-66
2021/11/17 10:11:59;;;;;;;7.83;5.93;;;;;;;5.45;82.61;98224.88;6219498;28;20573;-66
2021/11/17 10:15:12;;;;;;;10.97;7.60;;;;;;;5.44;82.63;98225.81;6213031;28;20547;-67
2021/11/17 10:18:14;;;;;;;10.93;7.97;;;;;;;5.42;82.47;98224.19;6213276;28;20739;-67
2021/11/17 10:21:22;;;;;;;11.73;7.90;;;;;;;5.42;82.20;98218.97;6219530;28;20323;-66
2021/11/17 10:24:45;;;;;;;10.83;7.33;;;;;;;5.45;82.47;98210.97;6218188;28;20220;-73
2021/11/17 10:27:55;;;;;;;13.37;9.00;;;;;;;5.45;82.37;98210.97;6217957;28;20572;-66
2021/11/17 10:31:07;;;;;;;12.23;7.83;;;;;;;5.41;82.01;98214.63;6217989;28;20525;-66
2021/11/17 10:34:28;;;;;;;12.03;8.33;;;;;;;5.41;81.67;98209.41;6219168;28;20188;-67
2021/11/17 10:37:41;;;;;;;13.10;8.47;;;;;;;5.41;81.57;98214.63;6219493;28;20280;-67
2021/11/17 10:41:02;;;;;;;12.27;8.70;;;;;;;5.43;81.46;98215.41;6218766;28;20200;-67
2021/11/17 10:44:09;;;;;;;12.53;8.13;;;;;;;5.46;81.44;98217.88;6219184;28;20224;-66
2021/11/17 10:47:33;;;;;;;10.37;7.47;;;;;;;5.50;80.92;98214.16;6196864;28;20194;-67
2021/11/17 10:50:40;;;;;;;11.07;8.03;;;;;;;5.52;81.28;98207.94;6217898;28;20188;-67
2021/11/17 10:53:48;;;;;;;11.30;7.63;;;;;;;5.50;81.43;98203.69;6219076;28;20183;-66
2021/11/17 10:57:09;;;;;;;11.20;7.73;;;;;;;5.50;80.71;98209.78;6200964;28;20200;-67
2021/11/17 11:00:13;;;;;;;8.90;6.63;;;;;;;5.52;80.62;98212.31;6219005;28;20269;-67
2021/11/17 11:03:19;;;;;;;12.13;7.30;;;;;;;5.53;80.97;98214.88;6217059;28;20196;-66
2021/11/17 11:06:29;;;;;;;9.63;6.30;;;;;;;5.55;81.12;98207.78;6218697;28;20207;-67
2021/11/17 11:09:33;;;;;;;7.73;5.60;;;;;;;5.53;81.15;98206.16;6218724;28;20564;-67
2021/11/17 11:12:35;;;;;;;9.97;6.63;;;;;;;5.56;81.33;98213.88;6217576;28;20209;-66
2021/11/17 11:15:45;;;;;;;10.13;7.20;;;;;;;5.62;80.77;98213.53;6216274;28;20195;-66
2021/11/17 11:19:13;;;;;;;8.53;6.30;;;;;;;5.65;81.00;98213.38;6216736;28;20205;-66
2021/11/17 11:22:21;;;;;;;9.97;7.07;;;;;;;5.67;80.56;98198.44;6118730;29;20217;-66
2021/11/17 11:25:47;;;;;;;8.20;5.57;;;;;;;5.72;80.57;98206.06;6103216;29;20241;-66
2021/11/17 11:29:22;;;;;;;8.23;5.63;;;;;;;5.76;80.77;98207.59;6119461;29;20255;-66
2021/11/17 11:32:30;;;;;;;8.00;5.20;;;;;;;5.77;80.51;98198.81;6102847;29;20203;-66
2021/11/17 11:35:32;;;;;;;7.23;5.00;;;;;;;5.74;80.14;98194.59;6103777;29;20188;-66
2021/11/17 11:38:35;;;;;;;6.90;5.13;;;;;;;5.67;79.28;98187.97;6119136;29;20579;-67
2021/11/17 11:41:48;;;;;;;5.33;4.43;;;;;;;5.67;79.64;98189.75;6102669;29;20210;-66
2021/11/17 11:45:25;;;;;;;7.03;4.70;;;;;;;5.70;78.83;98193.03;6115037;29;20245;-67
2021/11/17 11:48:27;;;;;;;5.00;4.00;;;;;;;5.66;79.22;98186.28;6092448;29;20630;-66
2021/11/17 11:51:32;;;;;;;6.50;4.30;;;;;;;5.71;79.17;98189.50;6112615;29;20601;-67
2021/11/17 11:54:54;;;;;;;5.30;4.20;;;;;;;5.72;78.27;98183.34;6103088;29;20363;-66
2021/11/17 11:58:21;;;;;;;6.70;4.87;;;;;;;5.69;78.46;98182.66;6138016;28;20279;-67
2021/11/17 12:01:25;;;;;;;4.80;3.40;;;;;;;5.68;78.84;98187.06;6217441;28;20199;-70
2021/11/17 12:04:27;;;;;;;5.50;4.47;;;;;;;5.69;77.96;98183.47;6218023;28;20268;-66
2021/11/17 12:07:57;;;;;;;5.03;3.77;;;;;;;5.71;77.86;98176.41;6217952;28;20203;-66
2021/11/17 12:11:02;;;;;;;5.17;4.20;;;;;;;5.77;77.73;98191.81;6217407;28;20687;-66
2021/11/17 12:14:09;;;;;;;5.27;3.87;;;;;;;5.84;77.33;98184.47;6216740;28;20193;-66
2021/11/17 12:17:20;;;;;;;4.63;3.83;;;;;;;5.91;77.38;98189.31;6198148;28;20619;-66
2021/11/17 12:20:25;;;;;;;5.80;4.03;;;;;;;5.92;76.57;98196.25;6216414;28;20201;-65
2021/11/17 12:23:33;;;;;;;5.87;4.23;;;;;;;5.90;76.66;98195.47;6217848;28;20195;-66
2021/11/17 12:26:39;;;;;;;5.73;3.43;;;;;;;5.92;76.06;98195.41;6216726;28;20210;-66
2021/11/17 12:29:58;;;;;;;4.27;3.53;;;;;;;5.86;75.54;98188.69;6219700;28;20255;-67
2021/11/17 12:33:13;;;;;;;4.33;3.53;;;;;;;5.84;75.65;98187.94;6221551;28;20702;-66
2021/11/17 12:36:26;;;;;;;4.63;3.20;;;;;;;5.85;75.44;98192.25;6223117;28;20293;-67
2021/11/17 12:39:36;;;;;;;4.60;2.80;;;;;;;5.83;75.30;98186.22;6196222;28;20297;-66
2021/11/17 12:42:51;;;;;;;3.47;2.93;;;;;;;5.79;74.74;98179.44;6221852;28;20587;-66
2021/11/17 12:46:26;;;;;;;3.33;3.03;;;;;;;5.80;75.42;98185.53;6208855;28;20233;-66
2021/11/17 12:49:48;;;;;;;3.60;2.97;;;;;;;5.78;75.21;98176.94;6199894;28;21008;-66
2021/11/17 12:52:59;;;;;;;4.27;3.30;;;;;;;5.75;74.92;98170.09;6220288;28;20201;-66
2021/11/17 12:56:23;;;;;;;4.60;3.00;;;;;;;5.71;75.00;98165.94;6221449;28;20271;-66
2021/11/17 12:59:46;;;;;;;3.20;2.80;;;;;;;5.75;74.26;98164.00;6222212;28;20622;-68
2021/11/17 13:02:59;;;;;;;2.90;2.60;;;;;;;5.77;75.13;98164.78;6206494;28;20201;-67
2021/11/17 13:06:16;;;;;;;2.63;2.30;;;;;;;5.75;74.96;98166.63;6221381;28;20715;-66
2021/11/17 13:09:33;;;;;;;2.40;2.20;;;;;;;5.76;74.54;98170.94;6220878;28;20201;-67
2021/11/17 13:12:37;;;;;;;3.97;2.73;;;;;;;5.69;74.43;98174.81;6221139;28;20716;-67
2021/11/17 13:15:57;;;;;;;3.17;2.63;;;;;;;5.69;74.76;98173.00;6212968;28;20190;-66
2021/11/17 13:19:02;;;;;;;4.43;2.83;;;;;;;5.66;74.43;98170.56;6220948;28;20557;-66
2021/11/17 13:22:26;;;;;;;4.73;2.57;;;;;;;5.66;74.46;98181.06;6221328;28;20558;-73
2021/11/17 13:25:46;;;;;;;3.97;3.03;;;;;;;5.65;74.25;98175.88;6207152;28;20727;-67
2021/11/17 13:28:50;;;;;;;3.00;2.57;;;;;;;5.61;74.64;98171.72;6219673;28;20653;-66
2021/11/17 13:32:08;;;;;;;3.90;3.00;;;;;;;5.62;74.08;98171.66;6220150;28;20198;-66
2021/11/17 13:35:25;;;;;;;4.20;3.17;;;;;;;5.59;74.88;98174.41;6219773;28;20193;-71
2021/11/17 13:38:28;;;;;;;3.30;2.90;;;;;;;5.58;74.45;98191.09;6220567;28;20198;-67
2021/11/17 13:41:32;;;;;;;4.27;3.30;;;;;;;5.53;74.57;98183.44;6220024;28;20696;-66
2021/11/17 13:44:35;;;;;;;5.37;3.20;;;;;;;5.57;74.25;98168.44;6217206;28;20233;-66
2021/11/17 13:47:56;;;;;;;4.47;3.10;;;;;;;5.60;74.26;98162.19;6208464;28;20661;-66
2021/11/17 13:50:59;;;;;;;4.50;3.43;;;;;;;5.60;74.51;98163.03;6218793;28;20254;-67
2021/11/17 13:54:01;;;;;;;3.60;3.00;;;;;;;5.61;74.12;98167.34;6220135;28;20571;-67
2021/11/17 13:57:09;;;;;;;3.60;2.57;;;;;;;5.63;74.57;98162.03;6218936;28;20208;-66
2021/11/17 14:00:13;;;;;;;3.60;2.63;;;;;;;5.61;74.22;98162.09;6218317;28;20681;-66
2021/11/17 14:03:16;;;;;;;2.73;2.43;;;;;;;5.60;74.58;98164.78;6220241;28;20236;-67
2021/11/17 14:06:21;;;;;;;2.63;1.90;;;;;;;5.61;74.51;98156.03;6219862;28;20306;-66
2021/11/17 14:09:24;;;;;;;3.17;2.50;;;;;;;5.61;75.18;98156.03;6219842;28;20200;-66
2021/11/17 14:12:26;;;;;;;2.63;2.10;;;;;;;5.61;74.58;98161.25;6219797;28;20211;-69
2021/11/17 14:15:28;;;;;;;2.73;2.43;;;;;;;5.62;75.35;98157.72;6209448;28;20673;-66
2021/11/17 14:18:31;;;;;;;3.90;2.00;;;;;;;5.59;74.81;98160.50;6205265;28;20589;-66
2021/11/17 14:21:34;;;;;;;3.40;2.50;;;;;;;5.56;75.17;98161.50;6219226;28;20198;-67
2021/11/17 14:24:37;;;;;;;2.83;2.03;;;;;;;5.55;75.46;98163.28;6219339;28;20205;-66
2021/11/17 14:27:42;;;;;;;4.00;2.77;;;;;;;5.54;74.81;98166.81;6219695;28;20768;-66
2021/11/17 14:31:05;;;;;;;3.03;2.60;;;;;;;5.54;75.16;98171.22;6218912;28;20180;-68
2021/11/17 14:34:07;;;;;;;4.67;3.00;;;;;;;5.48;75.16;98180.25;6202007;28;20201;-67
2021/11/17 14:37:10;;;;;;;4.00;3.00;;;;;;;5.47;74.71;98188.16;6219559;28;20241;-67
2021/11/17 14:40:16;;;;;;;3.43;2.23;;;;;;;5.46;75.29;98186.47;6219569;28;20692;-68
2021/11/17 14:43:22;;;;;;;2.37;1.73;;;;;;;5.47;74.76;98177.69;6219763;28;20312;-66
2021/11/17 14:46:24;;;;;;;3.53;2.30;;;;;;;5.46;75.45;98169.00;6213907;28;20240;-67
2021/11/17 14:49:31;;;;;;;4.30;2.60;;;;;;;5.45;75.31;98183.00;6219609;28;20676;-69
2021/11/17 14:52:34;;;;;;;3.00;2.17;;;;;;;5.44;74.97;98186.56;6218427;28;20193;-66
2021/11/17 14:55:36;;;;;;;5.17;2.80;;;;;;;5.41;75.75;98186.69;6218400;28;20331;-66
2021/11/17 14:58:40;;;;;;;4.57;2.87;;;;;;;5.40;75.45;98177.16;6219505;28;20196;-67
2021/11/17 15:01:43;;;;;;;2.63;2.23;;;;;;;5.41;75.38;98178.00;6218412;28;20220;-66
2021/11/17 15:04:46;;;;;;;3.13;2.53;;;;;;;5.41;75.35;98181.47;6219197;28;20230;-68
2021/11/17 15:07:49;;;;;;;1.97;1.67;;;;;;;5.40;75.88;98189.38;6218974;28;20246;-66
2021/11/17 15:10:51;;;;;;;2.70;2.20;;;;;;;5.37;75.78;98189.56;6218784;28;20203;-66
2021/11/17 15:13:54;;;;;;;2.43;1.63;;;;;;;5.36;75.93;98193.09;6218931;28;20599;-67
2021/11/17 15:16:57;;;;;;;3.47;2.20;;;;;;;5.36;76.07;98185.25;6206520;28;20193;-66
2021/11/17 15:19:59;;;;;;;4.23;2.27;;;;;;;5.31;76.18;98189.88;6217879;28;20197;-67
2021/11/17 15:23:03;;;;;;;3.33;2.67;;;;;;;5.30;76.29;98196.88;6217262;28;20574;-66
2021/11/17 15:26:05;;;;;;;4.10;2.97;;;;;;;5.30;76.42;98202.09;6219665;28;20220;-68
2021/11/17 15:29:07;;;;;;;4.00;3.10;;;;;;;5.33;75.84;98203.72;6218630;28;20208;-67
2021/11/17 15:32:10;;;;;;;4.20;2.97;;;;;;;5.35;75.76;98202.72;6217357;28;20216;-67
2021/11/17 15:35:13;;;;;;;3.93;2.77;;;;;;;5.36;76.22;98217.50;6218826;28;20197;-70
2021/11/17 15:38:17;;;;;;;4.03;3.00;;;;;;;5.37;76.49;98218.34;6218628;28;20188;-66
2021/11/17 15:41:24;;;;;;;3.13;2.57;;;;;;;5.36;75.79;98211.44;6218444;28;20200;-66
2021/11/17 15:44:27;;;;;;;3.03;2.47;;;;;;;5.35;76.55;98207.13;6217707;28;20225;-67
2021/11/17 15:47:29;;;;;;;4.23;2.87;;;;;;;5.33;76.50;98209.81;6199490;28;20192;-67
2021/11/17 15:50:38;;;;;;;3.67;2.87;;;;;;;5.35;76.22;98209.72;6217209;28;20299;-67
2021/11/17 15:53:40;;;;;;;3.93;2.70;;;;;;;5.35;76.57;98205.34;6218424;28;20189;-66
2021/11/17 15:56:42;;;;;;;3.30;2.73;;;;;;;5.36;76.24;98212.28;6194496;28;20606;-66
2021/11/17 15:59:44;;;;;;;4.50;3.50;;;;;;;5.34;76.71;98218.50;6214028;28;20274;-67
2021/11/17 16:02:52;;;;;;;4.40;3.60;;;;;;;5.31;76.85;98222.13;6218060;28;20189;-66
2021/11/17 16:05:58;;;;;;;4.50;3.03;;;;;;;5.33;76.96;98224.66;6222743;28;20220;-66
2021/11/17 16:09:01;;;;;;;3.77;2.93;;;;;;;5.31;77.38;98219.50;6223366;28;20558;-66
2021/11/17 16:12:04;;;;;;;3.97;3.20;;;;;;;5.33;77.08;98216.81;6222823;28;20267;-67
2021/11/17 16:15:07;;;;;;;5.13;3.23;;;;;;;5.33;76.96;98222.03;6222714;28;20275;-70
2021/11/17 16:18:11;;;;;;;2.63;2.13;;;;;;;5.31;77.50;98221.25;6223313;28;20576;-67
2021/11/17 16:21:14;;;;;;;3.93;2.97;;;;;;;5.32;76.48;98236.03;6222262;28;20188;-66
2021/11/17 16:27:39;;;;;;;4.37;3.30;;;;;;;5.31;76.91;98239.59;6222720;28;20284;-67
2021/11/17 16:30:43;;;;;;;5.80;3.73;;;;;;;5.33;76.23;98235.97;6222381;28;20216;-67
2021/11/17 16:33:46;;;;;;;5.17;3.20;;;;;;;5.33;76.25;98246.44;6223082;28;20669;-69
2021/11/17 16:36:49;;;;;;;4.50;3.33;;;;;;;5.34;76.36;98247.28;6222253;28;20825;-66
2021/11/17 16:39:57;;;;;;;3.63;3.23;;;;;;;5.34;76.41;98242.91;6222782;28;20663;-66
2021/11/17 16:43:00;;;;;;;5.67;3.50;;;;;;;5.35;76.19;98249.84;6221485;28;20247;-68
2021/11/17 16:46:03;;;;;;;5.13;3.40;;;;;;;5.35;76.74;98259.47;6213473;28;20732;-66
2021/11/17 16:49:13;;;;;;;4.53;3.37;;;;;;;5.35;76.41;98255.06;6221522;28;20316;-66
2021/11/17 16:52:33;;;;;;;4.93;3.33;;;;;;;5.34;77.10;98257.75;6221346;28;20315;-66
2021/11/17 16:55:36;;;;;;;5.83;3.20;;;;;;;5.33;76.90;98256.06;6220886;28;20190;-67
2021/11/17 16:58:40;;;;;;;5.53;4.20;;;;;;;5.32;76.88;98256.97;6222106;28;20208;-66
2021/11/17 17:01:42;;;;;;;4.63;4.00;;;;;;;5.31;77.66;98271.00;6221397;28;20208;-66
2021/11/17 17:04:44;;;;;;;5.77;4.97;;;;;;;5.32;77.55;98260.44;6221803;28;20856;-67
2021/11/17 17:07:51;;;;;;;6.37;3.83;;;;;;;5.29;77.06;98268.44;6221841;28;20646;-66
2021/11/17 17:10:54;;;;;;;5.47;3.83;;;;;;;5.28;77.36;98265.94;6221390;28;20208;-67
2021/11/17 17:13:56;;;;;;;4.77;4.00;;;;;;;5.28;77.44;98266.78;6221220;28;20199;-67
2021/11/17 17:17:17;;;;;;;5.87;4.07;;;;;;;5.27;77.02;98278.16;6206227;28;20251;-67
2021/11/17 17:20:26;;;;;;;4.57;3.93;;;;;;;5.27;77.33;98277.31;6221232;28;20672;-66
2021/11/17 17:23:29;;;;;;;7.40;4.57;;;;;;;5.29;77.22;98276.28;6221290;28;20188;-66
2021/11/17 17:26:31;;;;;;;6.47;5.03;;;;;;;5.29;76.49;98278.91;6221231;28;20697;-67
2021/11/17 17:29:35;;;;;;;7.20;5.47;;;;;;;5.26;76.64;98292.16;6203575;28;20279;-66